createdAt,value
2019-02-05T00:00:37.074Z,81.05
2019-02-05T00:03:05.443Z,81.02
2019-02-05T00:05:32.868Z,81.05
2019-02-05T00:08:00.225Z,81.50
2019-02-05T00:10:27.624Z,82.50
2019-02-05T00:12:55.105Z,82.50
2019-02-05T00:15:22.484Z,82.77
2019-02-05T00:17:49.965Z,82.77
2019-02-05T00:20:18.341Z,83.00
2019-02-05T00:22:45.727Z,83.30
2019-02-05T00:25:13.253Z,82.71
2019-02-05T00:27:40.606Z,82.71
2019-02-05T00:30:08.154Z,82.04
2019-02-05T00:32:35.546Z,82.04
2019-02-05T00:35:04.005Z,81.91
2019-02-05T00:37:31.366Z,82.57
2019-02-05T00:39:58.730Z,81.71
2019-02-05T00:42:26.221Z,81.71
2019-02-05T00:44:53.633Z,82.30
2019-02-05T00:47:21.013Z,81.93
2019-02-05T00:49:48.382Z,80.66
2019-02-05T00:52:15.865Z,81.08
2019-02-05T00:54:43.262Z,81.08
2019-02-05T00:57:10.608Z,81.32
2019-02-05T00:59:37.972Z,80.63
2019-02-05T01:02:05.335Z,80.68
2019-02-05T01:04:32.749Z,81.40
2019-02-05T01:07:00.115Z,81.40
2019-02-05T01:09:27.615Z,81.31
2019-02-05T01:11:55.000Z,81.63
2019-02-05T01:14:22.380Z,81.87
2019-02-05T01:16:49.753Z,81.87
2019-02-05T01:19:17.145Z,80.98
2019-02-05T01:21:44.565Z,81.33
2019-02-05T01:24:11.993Z,81.27
2019-02-05T01:26:39.471Z,81.94
2019-02-05T01:29:06.805Z,81.55
2019-02-05T01:31:34.185Z,81.99
2019-02-05T01:34:01.565Z,81.99
2019-02-05T01:36:28.973Z,80.92
2019-02-05T01:38:56.354Z,80.92
2019-02-05T01:41:23.765Z,82.00
2019-02-05T01:43:51.215Z,81.41
2019-02-05T01:46:18.594Z,81.70
2019-02-05T01:48:45.989Z,82.19
2019-02-05T01:51:13.385Z,82.06
2019-02-05T01:53:40.793Z,82.07
2019-02-05T01:56:08.187Z,81.09
2019-02-05T01:58:35.533Z,80.36
2019-02-05T02:01:04.729Z,81.40
2019-02-05T02:03:32.245Z,81.87
2019-02-05T02:05:59.635Z,80.95
2019-02-05T02:08:26.985Z,80.37
2019-02-05T02:10:54.370Z,80.78
2019-02-05T02:13:22.339Z,82.52
2019-02-05T02:15:49.854Z,82.52
2019-02-05T02:18:17.547Z,81.98
2019-02-05T02:20:44.945Z,81.31
2019-02-05T02:23:12.328Z,82.20
2019-02-05T02:25:39.716Z,82.20
2019-02-05T02:28:07.106Z,81.56
2019-02-05T02:30:36.816Z,81.56
2019-02-05T02:33:05.210Z,81.74
2019-02-05T02:35:32.670Z,80.93
2019-02-05T02:38:00.487Z,82.97
2019-02-05T02:40:27.909Z,82.97
2019-02-05T02:42:55.293Z,83.10
2019-02-05T02:45:22.646Z,80.75
2019-02-05T02:47:50.191Z,80.09
2019-02-05T02:50:17.620Z,82.02
2019-02-05T02:52:45.305Z,81.25
2019-02-05T02:55:12.785Z,81.25
2019-02-05T02:57:40.988Z,80.54
2019-02-05T03:00:11.225Z,80.05
2019-02-05T03:02:38.735Z,80.53
2019-02-05T03:05:08.813Z,80.85
2019-02-05T03:07:36.172Z,81.18
2019-02-05T03:10:05.875Z,81.27
2019-02-05T03:12:33.667Z,81.26
2019-02-05T03:15:01.091Z,81.34
2019-02-05T03:17:28.470Z,81.60
2019-02-05T03:19:56.205Z,82.24
2019-02-05T03:22:23.615Z,82.84
2019-02-05T03:24:50.985Z,82.32
2019-02-05T03:27:18.617Z,82.53
2019-02-05T03:29:46.027Z,82.54
2019-02-05T03:32:13.510Z,80.12
2019-02-05T03:34:41.433Z,80.12
2019-02-05T03:37:08.886Z,80.67
2019-02-05T03:39:36.273Z,80.56
2019-02-05T03:42:03.653Z,80.54
2019-02-05T03:44:31.026Z,79.80
2019-02-05T03:46:58.519Z,79.81
2019-02-05T03:49:26.280Z,80.11
2019-02-05T03:52:11.366Z,80.87
2019-02-05T03:55:14.784Z,80.87
2019-02-05T03:58:21.061Z,80.45
2019-02-05T04:01:30.901Z,80.82
2019-02-05T04:04:25.874Z,80.16
2019-02-05T04:07:28.369Z,80.04
2019-02-05T04:10:29.789Z,79.61
2019-02-05T04:13:37.685Z,80.85
2019-02-05T04:16:54.561Z,80.88
2019-02-05T04:20:10.714Z,80.48
2019-02-05T04:23:35.094Z,80.46
2019-02-05T04:26:34.638Z,80.27
2019-02-05T04:30:02.093Z,82.64
2019-02-05T04:33:11.379Z,82.77
2019-02-05T04:36:19.881Z,80.57
2019-02-05T04:39:23.404Z,79.90
2019-02-05T04:42:26.992Z,79.69
2019-02-05T04:45:34.159Z,79.69
2019-02-05T04:49:00.001Z,80.54
2019-02-05T04:51:48.225Z,80.69
2019-02-05T04:54:59.291Z,80.20
2019-02-05T04:58:01.301Z,80.90
2019-02-05T05:01:08.796Z,80.95
2019-02-05T05:04:17.885Z,81.61
2019-02-05T05:07:20.061Z,80.39
2019-02-05T05:10:04.264Z,81.01
2019-02-05T05:12:31.747Z,79.86
2019-02-05T05:14:59.883Z,80.19
2019-02-05T05:17:27.334Z,80.80
2019-02-05T05:19:54.826Z,80.55
2019-02-05T05:22:22.310Z,81.80
2019-02-05T05:24:49.685Z,82.15
2019-02-05T05:27:19.365Z,81.74
2019-02-05T05:29:46.985Z,81.91
2019-02-05T05:32:14.445Z,81.52
2019-02-05T05:34:41.804Z,81.75
2019-02-05T05:37:08.005Z,81.98
2019-02-05T05:39:35.384Z,82.06
2019-02-05T05:42:02.885Z,82.25
2019-02-05T05:44:30.265Z,81.98
2019-02-05T05:46:57.661Z,81.98
2019-02-05T05:49:25.265Z,81.67
2019-02-05T05:51:52.715Z,81.45
2019-02-05T05:54:20.105Z,82.58
2019-02-05T05:56:47.493Z,81.71
2019-02-05T05:59:14.845Z,82.98
2019-02-05T06:01:42.210Z,82.81
2019-02-05T06:04:09.600Z,82.81
2019-02-05T06:06:36.949Z,83.73
2019-02-05T06:09:07.193Z,82.85
2019-02-05T06:11:34.590Z,82.71
2019-02-05T06:14:01.966Z,82.06
2019-02-05T06:16:29.385Z,80.77
2019-02-05T06:18:56.814Z,79.91
2019-02-05T06:21:24.185Z,80.85
2019-02-05T06:23:51.615Z,81.05
2019-02-05T06:26:20.311Z,81.05
2019-02-05T06:28:48.121Z,81.60
2019-02-05T06:31:15.526Z,83.32
2019-02-05T06:33:43.033Z,83.39
2019-02-05T06:36:10.413Z,82.53
2019-02-05T06:38:37.833Z,81.64
2019-02-05T06:41:05.245Z,81.60
2019-02-05T06:43:32.625Z,82.46
2019-02-05T06:46:00.033Z,81.26
2019-02-05T06:48:27.440Z,80.95
2019-02-05T06:50:56.925Z,81.72
2019-02-05T06:53:24.133Z,82.06
2019-02-05T06:55:52.202Z,82.94
2019-02-05T06:58:19.573Z,83.14
2019-02-05T07:00:46.981Z,82.40
2019-02-05T07:03:14.545Z,81.82
2019-02-05T07:05:41.965Z,81.73
2019-02-05T07:08:09.425Z,80.57
2019-02-05T07:10:36.770Z,81.29
2019-02-05T07:13:04.285Z,82.80
2019-02-05T07:15:31.671Z,81.65
2019-02-05T07:17:58.986Z,81.98
2019-02-05T07:20:27.339Z,81.21
2019-02-05T07:22:55.715Z,80.86
2019-02-05T07:25:23.278Z,80.61
2019-02-05T07:27:50.627Z,79.97
2019-02-05T07:30:20.076Z,79.38
2019-02-05T07:32:47.448Z,79.81
2019-02-05T07:35:14.875Z,79.70
2019-02-05T07:37:42.230Z,79.73
2019-02-05T07:40:11.651Z,79.11
2019-02-05T07:42:39.968Z,77.71
2019-02-05T07:45:09.817Z,77.67
2019-02-05T07:47:37.141Z,76.88
2019-02-05T07:50:06.681Z,78.82
2019-02-05T07:52:34.143Z,78.58
2019-02-05T07:55:01.463Z,78.20
2019-02-05T07:57:28.762Z,77.81
2019-02-05T07:59:56.187Z,77.73
2019-02-05T08:02:23.760Z,77.67
2019-02-05T08:04:51.087Z,78.50
2019-02-05T08:07:18.421Z,79.04
2019-02-05T08:09:45.730Z,78.28
2019-02-05T08:12:13.062Z,78.97
2019-02-05T08:14:40.387Z,78.18
2019-02-05T08:17:07.718Z,76.55
2019-02-05T08:19:35.063Z,76.55
2019-02-05T08:22:02.442Z,78.27
2019-02-05T08:24:29.954Z,78.20
2019-02-05T08:26:57.277Z,78.08
2019-02-05T08:29:24.750Z,78.82
2019-02-05T08:31:52.173Z,78.59
2019-02-05T08:34:19.579Z,78.59
2019-02-05T08:36:47.795Z,79.08
2019-02-05T08:39:17.910Z,78.16
2019-02-05T08:41:44.434Z,77.93
2019-02-05T08:44:11.993Z,77.62
2019-02-05T08:46:39.311Z,77.62
2019-02-05T08:49:06.660Z,77.96
2019-02-05T08:51:34.062Z,78.65
2019-02-05T08:54:01.388Z,77.78
2019-02-05T08:56:28.848Z,77.79
2019-02-05T08:58:56.149Z,77.68
2019-02-05T09:01:23.465Z,77.18
2019-02-05T09:03:50.838Z,77.73
2019-02-05T09:06:18.178Z,77.64
2019-02-05T09:08:47.067Z,76.77
2019-02-05T09:11:14.593Z,77.20
2019-02-05T09:13:42.225Z,77.20
2019-02-05T09:16:09.530Z,78.11
2019-02-05T09:18:36.856Z,78.09
2019-02-05T09:21:07.054Z,78.09
2019-02-05T09:23:34.488Z,77.06
2019-02-05T09:26:01.833Z,77.72
2019-02-05T09:28:29.152Z,76.75
2019-02-05T09:30:56.473Z,76.75
2019-02-05T09:33:23.832Z,76.36
2019-02-05T09:35:51.275Z,76.58
2019-02-05T09:38:18.639Z,77.76
2019-02-05T09:40:45.985Z,75.82
2019-02-05T09:43:13.527Z,75.82
2019-02-05T09:45:40.858Z,74.99
2019-02-05T09:48:08.868Z,75.42
2019-02-05T09:50:44.627Z,74.86
2019-02-05T09:53:09.485Z,74.58
2019-02-05T09:55:36.988Z,74.67
2019-02-05T09:58:04.461Z,75.04
2019-02-05T10:00:34.476Z,75.02
2019-02-05T10:03:02.014Z,75.02
2019-02-05T10:05:30.242Z,75.44
2019-02-05T10:07:57.652Z,74.94
2019-02-05T10:10:25.203Z,74.94
2019-02-05T10:12:52.521Z,75.92
2019-02-05T10:15:22.305Z,76.53
2019-02-05T10:17:49.650Z,74.25
2019-02-05T10:20:17.690Z,73.90
2019-02-05T10:22:46.105Z,75.33
2019-02-05T10:25:13.638Z,75.33
2019-02-05T10:27:41.034Z,74.88
2019-02-05T10:30:19.639Z,74.18
2019-02-05T10:32:47.121Z,74.18
2019-02-05T10:35:14.540Z,74.95
2019-02-05T10:37:41.991Z,75.14
2019-02-05T10:40:09.461Z,74.11
2019-02-05T10:42:36.911Z,74.11
2019-02-05T10:45:06.113Z,71.64
2019-02-05T10:47:33.464Z,71.55
2019-02-05T10:50:00.806Z,72.32
2019-02-05T10:52:28.161Z,72.32
2019-02-05T10:54:55.708Z,73.16
2019-02-05T10:57:23.069Z,73.83
2019-02-05T10:59:50.439Z,73.90
2019-02-05T11:02:17.805Z,74.17
2019-02-05T11:04:45.210Z,71.80
2019-02-05T11:07:12.637Z,73.41
2019-02-05T11:09:40.068Z,73.41
2019-02-05T11:12:07.477Z,72.08
2019-02-05T11:14:34.921Z,71.59
2019-02-05T11:17:02.470Z,74.04
2019-02-05T11:19:29.829Z,74.04
2019-02-05T11:21:57.217Z,73.24
2019-02-05T11:24:24.595Z,71.84
2019-02-05T11:26:52.041Z,70.45
2019-02-05T11:29:19.457Z,71.54
2019-02-05T11:31:46.843Z,71.17
2019-02-05T11:34:14.222Z,71.71
2019-02-05T11:36:41.722Z,73.12
2019-02-05T11:39:14.463Z,73.44
2019-02-05T11:41:41.853Z,72.26
2019-02-05T11:44:09.273Z,70.55
2019-02-05T11:46:36.764Z,73.39
2019-02-05T11:49:04.372Z,73.30
2019-02-05T11:51:31.841Z,73.13
2019-02-05T11:53:59.652Z,73.84
2019-02-05T11:56:27.016Z,72.81
2019-02-05T11:58:54.422Z,74.77
2019-02-05T12:01:25.500Z,72.78
2019-02-05T12:03:52.953Z,72.01
2019-02-05T12:06:20.434Z,72.81
2019-02-05T12:08:47.818Z,74.89
2019-02-05T12:11:15.289Z,75.22
2019-02-05T12:13:42.894Z,75.47
2019-02-05T12:16:10.286Z,73.99
2019-02-05T12:18:37.697Z,73.24
2019-02-05T12:21:05.134Z,74.09
2019-02-05T12:23:32.529Z,74.32
2019-02-05T12:25:59.897Z,75.32
2019-02-05T12:28:27.329Z,74.38
2019-02-05T12:30:54.718Z,73.80
2019-02-05T12:33:22.096Z,74.17
2019-02-05T12:35:49.577Z,70.01
2019-02-05T12:38:17.157Z,72.33
2019-02-05T12:40:44.680Z,70.53
2019-02-05T12:43:12.089Z,72.81
2019-02-05T12:45:39.813Z,71.21
2019-02-05T12:48:07.321Z,69.55
2019-02-05T12:50:35.863Z,70.57
2019-02-05T12:53:03.517Z,70.94
2019-02-05T12:55:31.246Z,68.77
2019-02-05T12:57:59.200Z,68.77
2019-02-05T13:00:32.778Z,69.81
2019-02-05T13:03:00.337Z,70.50
2019-02-05T13:05:27.724Z,70.05
2019-02-05T13:07:55.145Z,70.98
2019-02-05T13:10:25.138Z,71.89
2019-02-05T13:12:52.537Z,71.52
2019-02-05T13:15:19.965Z,70.96
2019-02-05T13:17:47.359Z,70.37
2019-02-05T13:20:18.785Z,68.77
2019-02-05T13:22:46.176Z,69.21
2019-02-05T13:25:16.925Z,68.06
2019-02-05T13:27:44.500Z,67.18
2019-02-05T13:30:14.258Z,70.21
2019-02-05T13:32:41.673Z,68.09
2019-02-05T13:35:09.725Z,68.14
2019-02-05T13:37:37.073Z,68.59
2019-02-05T13:40:06.117Z,67.94
2019-02-05T13:42:33.521Z,68.50
2019-02-05T13:45:00.965Z,73.56
2019-02-05T13:47:28.413Z,74.54
2019-02-05T13:49:55.819Z,73.58
2019-02-05T13:52:23.317Z,74.58
2019-02-05T13:54:50.717Z,73.02
2019-02-05T13:57:18.318Z,73.72
2019-02-05T13:59:45.835Z,74.32
2019-02-05T14:02:13.517Z,74.60
2019-02-05T14:04:41.296Z,76.32
2019-02-05T14:07:08.885Z,75.86
2019-02-05T14:09:36.532Z,76.42
2019-02-05T14:12:04.440Z,76.28
2019-02-05T14:14:32.037Z,76.93
2019-02-05T14:16:59.728Z,74.25
2019-02-05T14:19:27.882Z,73.90
2019-02-05T14:21:55.862Z,76.53
2019-02-05T14:24:23.471Z,77.03
2019-02-05T14:26:51.619Z,77.14
2019-02-05T14:29:19.420Z,76.27
2019-02-05T14:31:46.909Z,76.50
2019-02-05T14:34:14.436Z,76.41
2019-02-05T14:36:42.017Z,76.41
2019-02-05T14:39:10.202Z,77.08
2019-02-05T14:41:37.753Z,75.97
2019-02-05T14:44:05.384Z,75.79
2019-02-05T14:46:32.980Z,76.11
2019-02-05T14:49:00.639Z,78.06
2019-02-05T14:51:28.514Z,78.45
2019-02-05T14:53:56.326Z,77.66
2019-02-05T14:56:24.227Z,77.04
2019-02-05T14:58:52.150Z,77.69
2019-02-05T15:01:20.116Z,78.53
2019-02-05T15:03:48.022Z,78.39
2019-02-05T15:06:15.732Z,78.02
2019-02-05T15:08:43.328Z,77.78
2019-02-05T15:11:11.208Z,77.81
2019-02-05T15:13:38.848Z,77.25
2019-02-05T15:16:06.654Z,77.64
2019-02-05T15:18:34.580Z,77.55
2019-02-05T15:21:02.529Z,78.59
2019-02-05T15:23:30.527Z,79.56
2019-02-05T15:25:58.507Z,79.15
2019-02-05T15:28:26.406Z,78.88
2019-02-05T15:30:54.236Z,78.87
2019-02-05T15:33:38.603Z,78.87
2019-02-05T15:36:49.080Z,78.21
2019-02-05T15:39:16.918Z,78.59
2019-02-05T15:41:44.778Z,79.20
2019-02-05T15:44:12.877Z,77.65
2019-02-05T15:46:40.821Z,76.70
2019-02-05T15:49:08.799Z,76.36
2019-02-05T15:51:36.824Z,76.35
2019-02-05T15:54:04.928Z,77.10
2019-02-05T15:56:32.739Z,77.86
2019-02-05T15:59:00.734Z,78.32
2019-02-05T16:01:28.830Z,78.29
2019-02-05T16:03:56.773Z,78.92
2019-02-05T16:06:24.768Z,79.14
2019-02-05T16:08:52.680Z,79.14
2019-02-05T16:11:20.557Z,79.34
2019-02-05T16:13:48.657Z,79.17
2019-02-05T16:16:16.749Z,79.88
2019-02-05T16:18:45.528Z,79.88
2019-02-05T16:21:13.502Z,81.50
2019-02-05T16:23:41.475Z,81.90
2019-02-05T16:26:09.440Z,82.14
2019-02-05T16:28:37.420Z,82.67
2019-02-05T16:31:05.267Z,82.14
2019-02-05T16:33:33.254Z,82.14
2019-02-05T16:36:01.456Z,81.90
2019-02-05T16:38:29.345Z,82.02
2019-02-05T16:40:57.307Z,82.24
2019-02-05T16:43:27.901Z,82.27
2019-02-05T16:45:54.899Z,82.36
2019-02-05T16:48:22.757Z,81.92
2019-02-05T16:50:50.760Z,81.73
2019-02-05T16:53:18.779Z,82.06
2019-02-05T16:55:46.912Z,81.77
2019-02-05T16:58:14.649Z,82.10
2019-02-05T17:00:42.556Z,83.00
2019-02-05T17:03:10.489Z,83.13
2019-02-05T17:05:39.303Z,82.60
2019-02-05T17:08:07.494Z,82.97
2019-02-05T17:10:35.573Z,83.00
2019-02-05T17:13:03.674Z,82.87
2019-02-05T17:15:31.728Z,82.83
2019-02-05T17:17:59.711Z,83.49
2019-02-05T17:20:28.943Z,83.62
2019-02-05T17:22:56.917Z,83.72
2019-02-05T17:25:25.914Z,83.43
2019-02-05T17:27:55.219Z,83.45
2019-02-05T17:30:26.782Z,83.72
2019-02-05T17:32:54.839Z,83.90
2019-02-05T17:35:24.290Z,83.83
2019-02-05T17:37:52.327Z,84.27
2019-02-05T17:40:24.136Z,84.26
2019-02-05T17:42:53.309Z,84.26
2019-02-05T17:45:24.632Z,83.92
2019-02-05T17:47:53.770Z,83.33
2019-02-05T17:50:21.780Z,83.42
2019-02-05T17:52:49.792Z,83.42
2019-02-05T17:55:19.560Z,83.22
2019-02-05T17:57:48.713Z,82.87
2019-02-05T18:00:31.267Z,83.04
2019-02-05T18:02:59.246Z,83.36
2019-02-05T18:05:27.269Z,83.45
2019-02-05T18:07:55.362Z,83.68
2019-02-05T18:10:25.383Z,83.66
2019-02-05T18:12:53.769Z,82.91
2019-02-05T18:15:27.703Z,82.96
2019-02-05T18:17:55.768Z,82.90
2019-02-05T18:20:23.627Z,82.88
2019-02-05T18:22:52.007Z,83.02
2019-02-05T18:25:20.217Z,83.00
2019-02-05T18:27:51.530Z,83.07
2019-02-05T18:30:22.725Z,82.97
2019-02-05T18:32:50.852Z,82.90
2019-02-05T18:35:18.811Z,82.94
2019-02-05T18:37:47.380Z,83.32
2019-02-05T18:40:16.817Z,83.33
2019-02-05T18:42:45.162Z,83.14
2019-02-05T18:45:14.563Z,83.54
2019-02-05T18:47:42.700Z,83.51
2019-02-05T18:50:14.973Z,83.64
2019-02-05T18:52:44.731Z,83.74
2019-02-05T18:55:12.691Z,84.11
2019-02-05T18:57:41.228Z,84.23
2019-02-05T19:00:19.545Z,84.12
2019-02-05T19:02:47.593Z,84.20
2019-02-05T19:05:16.224Z,84.38
2019-02-05T19:07:44.807Z,84.70
2019-02-05T19:10:13.487Z,84.70
2019-02-05T19:12:41.604Z,84.42
2019-02-05T19:15:15.843Z,84.29
2019-02-05T19:17:44.013Z,84.47
2019-02-05T19:20:12.162Z,84.23
2019-02-05T19:22:49.542Z,83.90
2019-02-05T19:25:42.572Z,83.75
2019-02-05T19:28:15.241Z,83.47
2019-02-05T19:30:44.065Z,83.47
2019-02-05T19:33:13.766Z,83.65
2019-02-05T19:35:42.920Z,83.37
2019-02-05T19:38:13.488Z,83.30
2019-02-05T19:40:41.618Z,83.30
2019-02-05T19:43:09.636Z,83.24
2019-02-05T19:45:53.245Z,83.30
2019-02-05T19:48:34.973Z,83.06
2019-02-05T19:51:03.347Z,83.08
2019-02-05T19:53:32.008Z,83.17
2019-02-05T19:56:00.132Z,83.18
2019-02-05T19:58:28.310Z,83.08
2019-02-05T20:00:56.433Z,83.06
2019-02-05T20:03:25.859Z,83.39
2019-02-05T20:05:54.313Z,83.22
2019-02-05T20:08:23.477Z,82.78
2019-02-05T20:10:51.677Z,82.69
2019-02-05T20:13:19.962Z,82.77
2019-02-05T20:15:51.191Z,83.19
2019-02-05T20:18:25.220Z,83.19
2019-02-05T20:20:53.717Z,83.55
2019-02-05T20:23:23.119Z,83.59
2019-02-05T20:25:51.076Z,83.76
2019-02-05T20:28:19.447Z,83.83
2019-02-05T20:30:47.347Z,83.97
2019-02-05T20:33:16.623Z,83.81
2019-02-05T20:35:46.466Z,83.61
2019-02-05T20:38:14.527Z,83.33
2019-02-05T20:40:42.547Z,83.87
2019-02-05T20:43:10.590Z,83.99
2019-02-05T20:45:40.976Z,83.58
2019-02-05T20:48:09.094Z,83.29
2019-02-05T20:50:37.165Z,83.05
2019-02-05T20:53:13.451Z,82.98
2019-02-05T20:55:35.033Z,83.26
2019-02-05T20:58:03.249Z,83.09
2019-02-05T21:00:35.943Z,83.17
2019-02-05T21:03:05.524Z,83.17
2019-02-05T21:05:34.439Z,83.22
2019-02-05T21:08:03.681Z,83.59
2019-02-05T21:10:31.675Z,84.32
2019-02-05T21:12:59.703Z,84.53
2019-02-05T21:15:28.298Z,84.65
2019-02-05T21:17:56.380Z,84.65
2019-02-05T21:20:29.232Z,84.11
2019-02-05T21:22:56.679Z,83.85
2019-02-05T21:25:24.267Z,83.59
2019-02-05T21:27:52.170Z,83.22
2019-02-05T21:30:20.328Z,83.19
2019-02-05T21:32:48.349Z,83.99
2019-02-05T21:35:16.545Z,84.05
2019-02-05T21:37:44.933Z,83.79
2019-02-05T21:40:18.600Z,83.79
2019-02-05T21:42:46.501Z,83.45
2019-02-05T21:45:16.921Z,83.32
2019-02-05T21:47:44.867Z,83.46
2019-02-05T21:50:15.218Z,83.52
2019-02-05T21:52:43.122Z,83.52
2019-02-05T21:55:11.937Z,83.34
2019-02-05T21:57:39.809Z,83.34
2019-02-05T22:00:16.724Z,83.46
2019-02-05T22:02:44.690Z,84.05
2019-02-05T22:05:12.648Z,83.57
2019-02-05T22:07:40.602Z,83.27
2019-02-05T22:10:08.745Z,83.38
2019-02-05T22:12:36.762Z,83.38
2019-02-05T22:15:06.376Z,84.61
2019-02-05T22:17:33.806Z,84.66
2019-02-05T22:20:01.262Z,84.90
2019-02-05T22:22:28.697Z,84.81
2019-02-05T22:24:56.137Z,84.92
2019-02-05T22:27:23.537Z,84.80
2019-02-05T22:29:50.959Z,84.12
2019-02-05T22:32:18.358Z,83.41
2019-02-05T22:34:45.813Z,83.41
2019-02-05T22:37:13.165Z,86.69
2019-02-05T22:39:40.638Z,86.69
2019-02-05T22:42:08.037Z,85.61
2019-02-05T22:44:35.517Z,84.79
2019-02-05T22:47:03.122Z,85.63
2019-02-05T22:49:30.497Z,85.32
2019-02-05T22:51:57.898Z,84.41
2019-02-05T22:54:25.278Z,84.02
2019-02-05T22:56:52.637Z,85.00
2019-02-05T22:59:20.121Z,84.57
2019-02-05T23:01:56.167Z,84.64
2019-02-05T23:04:51.097Z,84.09
2019-02-05T23:07:20.726Z,83.64
2019-02-05T23:10:09.583Z,83.67
2019-02-05T23:13:01.942Z,83.55
2019-02-05T23:15:29.998Z,83.44
2019-02-05T23:17:57.419Z,83.66
2019-02-05T23:20:24.797Z,84.62
2019-02-05T23:22:52.886Z,84.82
2019-02-05T23:25:20.326Z,84.33
2019-02-05T23:27:48.000Z,83.73
2019-02-05T23:30:18.337Z,83.73
2019-02-05T23:32:45.818Z,84.14
2019-02-05T23:35:13.937Z,84.49
2019-02-05T23:37:41.398Z,83.79
2019-02-05T23:40:09.156Z,83.79
2019-02-05T23:42:36.641Z,83.77
2019-02-05T23:45:05.752Z,83.94
2019-02-05T23:47:33.396Z,83.94
2019-02-05T23:50:00.757Z,84.65
2019-02-05T23:52:28.108Z,84.39
2019-02-05T23:54:55.533Z,84.03
2019-02-05T23:57:22.917Z,84.21
2019-02-05T23:59:50.277Z,84.21
